Terminal Aerodrome Forecast
Issued by NWS Kansas City/Pleasant Hill, MO

Home | Current Version | Previous Version | Text Only | Print | Product List | Glossary On
Versions: 1 2 3 4 5 6 7 8 9 10 11 12 13 14 15 16
783
FTUS43 KEAX 202326
TAFMCI
TAF
KMCI 202326Z 2100/2124 25009KT P6SM BKN150
     FM210400 30006KT P6SM FEW150
      TEMPO 2110/2114 34004KT 4SM BR BKN010
     FM211500 29007KT P6SM SKC=

USA.gov is the U.S. government's official web portal to all federal, state and local government web resources and services.